sensor_id;sensor_type;location;lat;lon;timestamp;P1;durP1;ratioP1;P2;durP2;ratioP2
33184;SDS011;19550;42.872;25.494;2024-02-23T00:01:48;19.88;;;11.90;;
33184;SDS011;19550;42.872;25.494;2024-02-23T00:04:15;17.77;;;10.73;;
33184;SDS011;19550;42.872;25.494;2024-02-23T00:06:45;18.05;;;10.40;;
33184;SDS011;19550;42.872;25.494;2024-02-23T00:09:12;18.40;;;11.50;;
33184;SDS011;19550;42.872;25.494;2024-02-23T00:11:39;26.02;;;16.23;;
33184;SDS011;19550;42.872;25.494;2024-02-23T00:14:09;30.25;;;17.65;;
33184;SDS011;19550;42.872;25.494;2024-02-23T00:16:37;23.70;;;11.60;;
33184;SDS011;19550;42.872;25.494;2024-02-23T00:19:05;19.05;;;11.68;;
33184;SDS011;19550;42.872;25.494;2024-02-23T00:21:33;18.20;;;11.13;;
33184;SDS011;19550;42.872;25.494;2024-02-23T00:24:02;20.63;;;11.77;;
33184;SDS011;19550;42.872;25.494;2024-02-23T00:26:28;21.02;;;12.10;;
33184;SDS011;19550;42.872;25.494;2024-02-23T00:28:55;23.77;;;12.70;;
33184;SDS011;19550;42.872;25.494;2024-02-23T00:31:22;29.00;;;16.27;;
33184;SDS011;19550;42.872;25.494;2024-02-23T00:33:49;23.27;;;11.38;;
33184;SDS011;19550;42.872;25.494;2024-02-23T00:36:16;17.52;;;10.82;;
33184;SDS011;19550;42.872;25.494;2024-02-23T00:38:42;18.58;;;10.73;;
33184;SDS011;19550;42.872;25.494;2024-02-23T00:41:10;16.98;;;10.57;;
33184;SDS011;19550;42.872;25.494;2024-02-23T00:43:38;17.00;;;11.02;;
33184;SDS011;19550;42.872;25.494;2024-02-23T00:46:04;24.50;;;15.07;;
33184;SDS011;19550;42.872;25.494;2024-02-23T00:48:31;25.98;;;15.30;;
33184;SDS011;19550;42.872;25.494;2024-02-23T00:50:58;20.17;;;11.25;;
33184;SDS011;19550;42.872;25.494;2024-02-23T00:53:25;22.08;;;12.30;;
33184;SDS011;19550;42.872;25.494;2024-02-23T00:55:51;20.80;;;12.02;;
33184;SDS011;19550;42.872;25.494;2024-02-23T00:58:20;17.02;;;11.10;;
33184;SDS011;19550;42.872;25.494;2024-02-23T01:00:46;21.90;;;13.02;;
33184;SDS011;19550;42.872;25.494;2024-02-23T01:03:13;25.52;;;15.10;;
33184;SDS011;19550;42.872;25.494;2024-02-23T01:05:40;19.60;;;12.30;;
33184;SDS011;19550;42.872;25.494;2024-02-23T01:08:07;20.77;;;12.27;;
33184;SDS011;19550;42.872;25.494;2024-02-23T01:10:34;22.95;;;11.85;;
33184;SDS011;19550;42.872;25.494;2024-02-23T01:13:01;19.92;;;11.48;;
33184;SDS011;19550;42.872;25.494;2024-02-23T01:15:29;17.83;;;11.13;;
33184;SDS011;19550;42.872;25.494;2024-02-23T01:17:56;19.48;;;11.55;;
33184;SDS011;19550;42.872;25.494;2024-02-23T01:20:23;16.20;;;10.23;;
33184;SDS011;19550;42.872;25.494;2024-02-23T01:22:49;22.33;;;12.70;;
33184;SDS011;19550;42.872;25.494;2024-02-23T01:25:16;19.73;;;11.90;;
33184;SDS011;19550;42.872;25.494;2024-02-23T01:27:43;21.55;;;13.05;;
33184;SDS011;19550;42.872;25.494;2024-02-23T01:30:10;21.33;;;13.20;;
33184;SDS011;19550;42.872;25.494;2024-02-23T01:32:39;38.20;;;20.48;;
33184;SDS011;19550;42.872;25.494;2024-02-23T01:35:06;36.75;;;20.63;;
33184;SDS011;19550;42.872;25.494;2024-02-23T01:37:34;38.17;;;22.00;;
33184;SDS011;19550;42.872;25.494;2024-02-23T01:40:01;43.70;;;24.05;;
33184;SDS011;19550;42.872;25.494;2024-02-23T01:42:28;31.48;;;18.42;;
33184;SDS011;19550;42.872;25.494;2024-02-23T01:44:55;27.77;;;16.20;;
33184;SDS011;19550;42.872;25.494;2024-02-23T01:47:22;27.30;;;14.38;;
33184;SDS011;19550;42.872;25.494;2024-02-23T01:49:51;22.63;;;12.65;;
33184;SDS011;19550;42.872;25.494;2024-02-23T01:52:18;22.02;;;12.25;;
33184;SDS011;19550;42.872;25.494;2024-02-23T01:54:47;19.98;;;11.43;;
33184;SDS011;19550;42.872;25.494;2024-02-23T01:57:14;20.65;;;12.13;;
33184;SDS011;19550;42.872;25.494;2024-02-23T01:59:41;16.23;;;10.77;;
33184;SDS011;19550;42.872;25.494;2024-02-23T02:02:08;21.75;;;11.25;;
33184;SDS011;19550;42.872;25.494;2024-02-23T02:04:35;20.77;;;11.20;;
33184;SDS011;19550;42.872;25.494;2024-02-23T02:07:03;16.20;;;10.65;;
33184;SDS011;19550;42.872;25.494;2024-02-23T02:09:31;20.25;;;12.35;;
33184;SDS011;19550;42.872;25.494;2024-02-23T02:11:58;16.45;;;10.05;;
33184;SDS011;19550;42.872;25.494;2024-02-23T02:14:25;16.33;;;10.07;;
33184;SDS011;19550;42.872;25.494;2024-02-23T02:19:21;16.25;;;10.40;;
33184;SDS011;19550;42.872;25.494;2024-02-23T02:21:48;18.73;;;11.13;;
33184;SDS011;19550;42.872;25.494;2024-02-23T02:24:16;20.20;;;12.05;;
33184;SDS011;19550;42.872;25.494;2024-02-23T02:26:43;17.25;;;10.20;;
33184;SDS011;19550;42.872;25.494;2024-02-23T02:29:11;24.90;;;11.77;;
33184;SDS011;19550;42.872;25.494;2024-02-23T02:31:39;18.58;;;11.02;;
33184;SDS011;19550;42.872;25.494;2024-02-23T02:34:07;36.15;;;20.45;;
33184;SDS011;19550;42.872;25.494;2024-02-23T02:36:33;19.58;;;12.32;;
33184;SDS011;19550;42.872;25.494;2024-02-23T02:39:00;20.85;;;11.77;;
33184;SDS011;19550;42.872;25.494;2024-02-23T02:41:28;17.73;;;10.82;;
33184;SDS011;19550;42.872;25.494;2024-02-23T02:43:56;26.55;;;14.00;;
33184;SDS011;19550;42.872;25.494;2024-02-23T02:46:22;18.00;;;10.88;;
33184;SDS011;19550;42.872;25.494;2024-02-23T02:48:49;21.98;;;10.98;;
33184;SDS011;19550;42.872;25.494;2024-02-23T02:51:16;21.98;;;10.80;;
33184;SDS011;19550;42.872;25.494;2024-02-23T02:53:43;18.15;;;11.15;;
33184;SDS011;19550;42.872;25.494;2024-02-23T02:56:09;29.63;;;16.65;;
33184;SDS011;19550;42.872;25.494;2024-02-23T02:58:37;21.60;;;12.93;;
33184;SDS011;19550;42.872;25.494;2024-02-23T03:01:04;15.90;;;9.70;;
33184;SDS011;19550;42.872;25.494;2024-02-23T03:03:31;20.02;;;10.90;;
33184;SDS011;19550;42.872;25.494;2024-02-23T03:05:58;17.50;;;10.48;;
33184;SDS011;19550;42.872;25.494;2024-02-23T03:08:24;19.08;;;10.82;;
33184;SDS011;19550;42.872;25.494;2024-02-23T03:10:51;22.08;;;12.57;;
33184;SDS011;19550;42.872;25.494;2024-02-23T03:13:18;22.98;;;13.52;;
33184;SDS011;19550;42.872;25.494;2024-02-23T03:15:46;19.85;;;12.35;;
33184;SDS011;19550;42.872;25.494;2024-02-23T03:18:13;21.08;;;13.27;;
33184;SDS011;19550;42.872;25.494;2024-02-23T03:20:40;22.45;;;13.50;;
33184;SDS011;19550;42.872;25.494;2024-02-23T03:23:07;23.20;;;12.80;;
33184;SDS011;19550;42.872;25.494;2024-02-23T03:25:34;21.05;;;12.65;;
33184;SDS011;19550;42.872;25.494;2024-02-23T03:28:01;23.67;;;12.38;;
33184;SDS011;19550;42.872;25.494;2024-02-23T03:30:28;18.30;;;11.65;;
33184;SDS011;19550;42.872;25.494;2024-02-23T03:32:56;18.55;;;11.15;;
33184;SDS011;19550;42.872;25.494;2024-02-23T03:35:23;18.08;;;11.00;;
33184;SDS011;19550;42.872;25.494;2024-02-23T03:37:49;27.58;;;15.65;;
33184;SDS011;19550;42.872;25.494;2024-02-23T03:40:16;18.80;;;11.50;;
33184;SDS011;19550;42.872;25.494;2024-02-23T03:42:44;17.55;;;10.52;;
33184;SDS011;19550;42.872;25.494;2024-02-23T03:45:11;19.70;;;12.32;;
33184;SDS011;19550;42.872;25.494;2024-02-23T03:47:38;25.75;;;13.98;;
33184;SDS011;19550;42.872;25.494;2024-02-23T03:50:07;35.33;;;18.80;;
33184;SDS011;19550;42.872;25.494;2024-02-23T03:52:34;27.30;;;16.77;;
33184;SDS011;19550;42.872;25.494;2024-02-23T03:55:01;22.92;;;13.38;;
33184;SDS011;19550;42.872;25.494;2024-02-23T03:57:28;25.75;;;13.52;;
33184;SDS011;19550;42.872;25.494;2024-02-23T03:59:55;22.00;;;12.82;;
33184;SDS011;19550;42.872;25.494;2024-02-23T04:02:23;27.73;;;15.18;;
33184;SDS011;19550;42.872;25.494;2024-02-23T04:04:50;29.60;;;16.13;;
33184;SDS011;19550;42.872;25.494;2024-02-23T04:07:18;29.30;;;15.30;;
33184;SDS011;19550;42.872;25.494;2024-02-23T04:09:45;20.42;;;12.02;;
33184;SDS011;19550;42.872;25.494;2024-02-23T04:12:17;22.60;;;12.73;;
33184;SDS011;19550;42.872;25.494;2024-02-23T04:14:44;33.22;;;19.05;;
33184;SDS011;19550;42.872;25.494;2024-02-23T04:17:11;21.80;;;12.25;;
33184;SDS011;19550;42.872;25.494;2024-02-23T04:19:38;19.60;;;12.25;;
33184;SDS011;19550;42.872;25.494;2024-02-23T04:22:05;18.25;;;11.10;;
33184;SDS011;19550;42.872;25.494;2024-02-23T04:24:35;33.83;;;20.15;;
33184;SDS011;19550;42.872;25.494;2024-02-23T04:27:02;23.08;;;13.38;;
33184;SDS011;19550;42.872;25.494;2024-02-23T04:29:30;22.55;;;12.93;;
33184;SDS011;19550;42.872;25.494;2024-02-23T04:31:59;20.98;;;13.32;;
33184;SDS011;19550;42.872;25.494;2024-02-23T04:34:25;28.30;;;15.88;;
33184;SDS011;19550;42.872;25.494;2024-02-23T04:36:52;32.88;;;19.23;;
33184;SDS011;19550;42.872;25.494;2024-02-23T04:39:19;25.92;;;14.45;;
33184;SDS011;19550;42.872;25.494;2024-02-23T04:41:49;24.20;;;13.55;;
33184;SDS011;19550;42.872;25.494;2024-02-23T04:44:16;30.83;;;18.38;;
33184;SDS011;19550;42.872;25.494;2024-02-23T04:46:42;30.50;;;16.05;;
33184;SDS011;19550;42.872;25.494;2024-02-23T04:49:10;27.95;;;14.93;;
33184;SDS011;19550;42.872;25.494;2024-02-23T04:51:38;29.15;;;15.90;;
33184;SDS011;19550;42.872;25.494;2024-02-23T04:54:04;25.98;;;13.68;;
33184;SDS011;19550;42.872;25.494;2024-02-23T04:56:31;28.70;;;15.98;;
33184;SDS011;19550;42.872;25.494;2024-02-23T04:59:00;22.77;;;12.57;;
33184;SDS011;19550;42.872;25.494;2024-02-23T05:01:27;28.00;;;16.10;;
33184;SDS011;19550;42.872;25.494;2024-02-23T05:03:53;20.40;;;12.52;;
33184;SDS011;19550;42.872;25.494;2024-02-23T05:06:20;20.30;;;12.65;;
33184;SDS011;19550;42.872;25.494;2024-02-23T05:08:47;38.03;;;22.05;;
33184;SDS011;19550;42.872;25.494;2024-02-23T05:11:14;40.30;;;21.83;;
33184;SDS011;19550;42.872;25.494;2024-02-23T05:13:41;26.70;;;15.23;;
33184;SDS011;19550;42.872;25.494;2024-02-23T05:16:09;28.52;;;16.55;;
33184;SDS011;19550;42.872;25.494;2024-02-23T05:21:04;36.55;;;19.58;;
33184;SDS011;19550;42.872;25.494;2024-02-23T05:23:31;41.08;;;21.50;;
33184;SDS011;19550;42.872;25.494;2024-02-23T05:25:58;31.90;;;17.65;;
33184;SDS011;19550;42.872;25.494;2024-02-23T05:28:25;33.40;;;19.30;;
33184;SDS011;19550;42.872;25.494;2024-02-23T05:30:53;29.08;;;16.20;;
33184;SDS011;19550;42.872;25.494;2024-02-23T05:33:22;27.58;;;16.42;;
33184;SDS011;19550;42.872;25.494;2024-02-23T05:35:51;35.03;;;19.98;;
33184;SDS011;19550;42.872;25.494;2024-02-23T05:38:20;38.75;;;23.55;;
33184;SDS011;19550;42.872;25.494;2024-02-23T05:40:47;50.08;;;27.05;;
33184;SDS011;19550;42.872;25.494;2024-02-23T05:43:14;32.15;;;19.02;;
33184;SDS011;19550;42.872;25.494;2024-02-23T05:45:41;28.05;;;16.58;;
33184;SDS011;19550;42.872;25.494;2024-02-23T05:48:09;25.65;;;15.07;;
33184;SDS011;19550;42.872;25.494;2024-02-23T05:50:38;23.38;;;14.32;;
33184;SDS011;19550;42.872;25.494;2024-02-23T05:53:05;23.33;;;14.00;;
33184;SDS011;19550;42.872;25.494;2024-02-23T05:55:34;26.23;;;15.30;;
33184;SDS011;19550;42.872;25.494;2024-02-23T05:58:01;31.38;;;18.35;;
33184;SDS011;19550;42.872;25.494;2024-02-23T06:00:28;38.85;;;23.17;;
33184;SDS011;19550;42.872;25.494;2024-02-23T06:02:56;52.45;;;29.05;;
33184;SDS011;19550;42.872;25.494;2024-02-23T06:05:23;86.60;;;48.50;;
33184;SDS011;19550;42.872;25.494;2024-02-23T06:07:51;99.70;;;53.65;;
33184;SDS011;19550;42.872;25.494;2024-02-23T06:10:19;112.78;;;56.55;;
33184;SDS011;19550;42.872;25.494;2024-02-23T06:12:46;88.78;;;44.20;;
33184;SDS011;19550;42.872;25.494;2024-02-23T06:15:13;74.95;;;39.97;;
33184;SDS011;19550;42.872;25.494;2024-02-23T06:17:40;52.60;;;29.67;;
33184;SDS011;19550;42.872;25.494;2024-02-23T06:20:07;47.35;;;25.92;;
33184;SDS011;19550;42.872;25.494;2024-02-23T06:22:35;47.30;;;26.60;;
33184;SDS011;19550;42.872;25.494;2024-02-23T06:25:04;52.45;;;26.90;;
33184;SDS011;19550;42.872;25.494;2024-02-23T06:27:31;54.22;;;30.88;;
33184;SDS011;19550;42.872;25.494;2024-02-23T06:29:59;61.85;;;34.97;;
33184;SDS011;19550;42.872;25.494;2024-02-23T06:32:25;67.32;;;37.97;;
33184;SDS011;19550;42.872;25.494;2024-02-23T06:34:53;69.90;;;41.63;;
33184;SDS011;19550;42.872;25.494;2024-02-23T06:37:20;73.20;;;40.40;;
33184;SDS011;19550;42.872;25.494;2024-02-23T06:39:47;59.00;;;36.47;;
33184;SDS011;19550;42.872;25.494;2024-02-23T06:42:20;64.57;;;39.78;;
33184;SDS011;19550;42.872;25.494;2024-02-23T06:44:47;69.07;;;42.70;;
33184;SDS011;19550;42.872;25.494;2024-02-23T06:47:14;69.28;;;43.10;;
33184;SDS011;19550;42.872;25.494;2024-02-23T06:49:41;65.55;;;41.10;;
33184;SDS011;19550;42.872;25.494;2024-02-23T06:52:08;66.90;;;41.05;;
33184;SDS011;19550;42.872;25.494;2024-02-23T06:54:35;68.85;;;39.13;;
33184;SDS011;19550;42.872;25.494;2024-02-23T06:57:02;68.05;;;40.40;;
33184;SDS011;19550;42.872;25.494;2024-02-23T06:59:31;85.65;;;50.10;;
33184;SDS011;19550;42.872;25.494;2024-02-23T07:01:58;92.32;;;52.60;;
33184;SDS011;19550;42.872;25.494;2024-02-23T07:04:25;153.77;;;79.15;;
33184;SDS011;19550;42.872;25.494;2024-02-23T07:06:54;143.02;;;72.25;;
33184;SDS011;19550;42.872;25.494;2024-02-23T07:09:21;124.85;;;64.25;;
33184;SDS011;19550;42.872;25.494;2024-02-23T07:11:48;103.28;;;55.72;;
33184;SDS011;19550;42.872;25.494;2024-02-23T07:14:15;97.65;;;54.58;;
33184;SDS011;19550;42.872;25.494;2024-02-23T07:16:44;96.07;;;52.45;;
33184;SDS011;19550;42.872;25.494;2024-02-23T07:19:12;86.85;;;49.30;;
33184;SDS011;19550;42.872;25.494;2024-02-23T07:21:39;87.05;;;50.63;;
33184;SDS011;19550;42.872;25.494;2024-02-23T07:24:08;135.38;;;68.63;;
33184;SDS011;19550;42.872;25.494;2024-02-23T07:26:35;212.02;;;104.25;;
33184;SDS011;19550;42.872;25.494;2024-02-23T07:29:02;194.02;;;97.35;;
33184;SDS011;19550;42.872;25.494;2024-02-23T07:31:29;235.05;;;114.38;;
33184;SDS011;19550;42.872;25.494;2024-02-23T07:33:57;220.73;;;110.85;;
33184;SDS011;19550;42.872;25.494;2024-02-23T07:36:24;258.75;;;136.23;;
33184;SDS011;19550;42.872;25.494;2024-02-23T07:38:51;197.82;;;104.38;;
33184;SDS011;19550;42.872;25.494;2024-02-23T07:41:17;183.18;;;99.60;;
33184;SDS011;19550;42.872;25.494;2024-02-23T07:43:44;166.27;;;88.63;;
33184;SDS011;19550;42.872;25.494;2024-02-23T07:46:11;276.90;;;136.88;;
33184;SDS011;19550;42.872;25.494;2024-02-23T07:48:38;164.38;;;88.60;;
33184;SDS011;19550;42.872;25.494;2024-02-23T07:51:07;88.13;;;49.80;;
33184;SDS011;19550;42.872;25.494;2024-02-23T07:53:34;95.45;;;51.08;;
33184;SDS011;19550;42.872;25.494;2024-02-23T07:56:01;83.25;;;48.05;;
33184;SDS011;19550;42.872;25.494;2024-02-23T07:58:29;58.97;;;37.08;;
33184;SDS011;19550;42.872;25.494;2024-02-23T08:00:55;63.53;;;38.10;;
33184;SDS011;19550;42.872;25.494;2024-02-23T08:03:23;52.92;;;31.52;;
33184;SDS011;19550;42.872;25.494;2024-02-23T08:05:49;42.65;;;28.10;;
33184;SDS011;19550;42.872;25.494;2024-02-23T08:08:18;48.40;;;30.33;;
33184;SDS011;19550;42.872;25.494;2024-02-23T08:10:44;55.35;;;34.70;;
33184;SDS011;19550;42.872;25.494;2024-02-23T08:13:11;64.03;;;41.53;;
33184;SDS011;19550;42.872;25.494;2024-02-23T08:15:38;51.08;;;32.67;;
33184;SDS011;19550;42.872;25.494;2024-02-23T08:18:05;67.00;;;39.13;;
33184;SDS011;19550;42.872;25.494;2024-02-23T08:20:32;63.10;;;36.10;;
33184;SDS011;19550;42.872;25.494;2024-02-23T08:22:59;16.35;;;11.45;;
33184;SDS011;19550;42.872;25.494;2024-02-23T08:25:27;16.00;;;10.13;;
33184;SDS011;19550;42.872;25.494;2024-02-23T08:27:54;12.00;;;7.72;;
33184;SDS011;19550;42.872;25.494;2024-02-23T08:30:21;12.85;;;9.27;;
33184;SDS011;19550;42.872;25.494;2024-02-23T08:32:48;11.98;;;7.85;;
33184;SDS011;19550;42.872;25.494;2024-02-23T08:35:15;10.23;;;7.57;;
33184;SDS011;19550;42.872;25.494;2024-02-23T08:37:42;10.57;;;7.50;;
33184;SDS011;19550;42.872;25.494;2024-02-23T08:40:09;11.02;;;8.70;;
33184;SDS011;19550;42.872;25.494;2024-02-23T08:42:38;9.15;;;7.35;;
33184;SDS011;19550;42.872;25.494;2024-02-23T08:45:05;9.98;;;6.93;;
33184;SDS011;19550;42.872;25.494;2024-02-23T08:47:32;9.05;;;6.90;;
33184;SDS011;19550;42.872;25.494;2024-02-23T08:50:00;8.30;;;6.40;;
33184;SDS011;19550;42.872;25.494;2024-02-23T08:52:28;8.60;;;6.90;;
33184;SDS011;19550;42.872;25.494;2024-02-23T08:54:55;9.40;;;7.18;;
33184;SDS011;19550;42.872;25.494;2024-02-23T08:57:22;9.32;;;7.40;;
33184;SDS011;19550;42.872;25.494;2024-02-23T08:59:50;8.88;;;6.07;;
33184;SDS011;19550;42.872;25.494;2024-02-23T09:02:17;8.75;;;6.45;;
33184;SDS011;19550;42.872;25.494;2024-02-23T09:04:44;9.43;;;7.15;;
33184;SDS011;19550;42.872;25.494;2024-02-23T09:07:11;9.20;;;6.57;;
33184;SDS011;19550;42.872;25.494;2024-02-23T09:09:39;7.60;;;6.07;;
33184;SDS011;19550;42.872;25.494;2024-02-23T09:12:13;7.63;;;6.50;;
33184;SDS011;19550;42.872;25.494;2024-02-23T09:14:42;7.63;;;5.95;;
33184;SDS011;19550;42.872;25.494;2024-02-23T09:17:10;7.55;;;6.25;;
33184;SDS011;19550;42.872;25.494;2024-02-23T09:19:37;10.70;;;6.93;;
33184;SDS011;19550;42.872;25.494;2024-02-23T09:22:04;16.08;;;10.35;;
33184;SDS011;19550;42.872;25.494;2024-02-23T09:24:31;18.90;;;12.30;;
33184;SDS011;19550;42.872;25.494;2024-02-23T09:26:58;10.80;;;5.45;;
33184;SDS011;19550;42.872;25.494;2024-02-23T09:29:25;7.97;;;5.88;;
33184;SDS011;19550;42.872;25.494;2024-02-23T09:31:52;8.63;;;5.65;;
33184;SDS011;19550;42.872;25.494;2024-02-23T09:34:20;9.63;;;7.18;;
33184;SDS011;19550;42.872;25.494;2024-02-23T09:36:47;12.10;;;9.20;;
33184;SDS011;19550;42.872;25.494;2024-02-23T09:39:13;7.18;;;5.63;;
33184;SDS011;19550;42.872;25.494;2024-02-23T09:41:40;6.18;;;5.28;;
33184;SDS011;19550;42.872;25.494;2024-02-23T09:44:09;9.25;;;6.65;;
33184;SDS011;19550;42.872;25.494;2024-02-23T09:46:36;7.25;;;5.75;;
33184;SDS011;19550;42.872;25.494;2024-02-23T09:49:03;8.13;;;5.60;;
33184;SDS011;19550;42.872;25.494;2024-02-23T09:51:34;5.75;;;4.90;;
33184;SDS011;19550;42.872;25.494;2024-02-23T09:56:29;7.30;;;5.13;;
33184;SDS011;19550;42.872;25.494;2024-02-23T09:58:59;7.07;;;5.40;;
33184;SDS011;19550;42.872;25.494;2024-02-23T10:01:28;6.32;;;5.25;;
33184;SDS011;19550;42.872;25.494;2024-02-23T10:03:58;5.53;;;4.85;;
33184;SDS011;19550;42.872;25.494;2024-02-23T10:06:27;5.28;;;4.32;;
33184;SDS011;19550;42.872;25.494;2024-02-23T10:08:55;6.07;;;4.78;;
33184;SDS011;19550;42.872;25.494;2024-02-23T10:11:23;6.45;;;5.35;;
33184;SDS011;19550;42.872;25.494;2024-02-23T10:13:51;5.95;;;4.60;;
33184;SDS011;19550;42.872;25.494;2024-02-23T10:16:19;6.20;;;5.28;;
33184;SDS011;19550;42.872;25.494;2024-02-23T10:18:47;5.22;;;4.55;;
33184;SDS011;19550;42.872;25.494;2024-02-23T10:21:14;7.68;;;5.05;;
33184;SDS011;19550;42.872;25.494;2024-02-23T10:23:41;9.07;;;6.13;;
33184;SDS011;19550;42.872;25.494;2024-02-23T10:26:09;5.78;;;4.80;;
33184;SDS011;19550;42.872;25.494;2024-02-23T10:28:36;5.25;;;4.72;;
33184;SDS011;19550;42.872;25.494;2024-02-23T10:31:04;5.43;;;4.53;;
33184;SDS011;19550;42.872;25.494;2024-02-23T10:33:31;6.78;;;4.82;;
33184;SDS011;19550;42.872;25.494;2024-02-23T10:35:58;6.60;;;4.13;;
33184;SDS011;19550;42.872;25.494;2024-02-23T10:38:27;9.02;;;6.47;;
33184;SDS011;19550;42.872;25.494;2024-02-23T10:40:58;6.55;;;4.18;;
33184;SDS011;19550;42.872;25.494;2024-02-23T10:43:29;4.97;;;4.30;;
33184;SDS011;19550;42.872;25.494;2024-02-23T10:46:00;4.65;;;3.95;;
33184;SDS011;19550;42.872;25.494;2024-02-23T10:48:28;5.93;;;4.43;;
33184;SDS011;19550;42.872;25.494;2024-02-23T10:50:55;5.07;;;4.05;;
33184;SDS011;19550;42.872;25.494;2024-02-23T10:53:24;4.65;;;4.05;;
33184;SDS011;19550;42.872;25.494;2024-02-23T10:55:52;4.65;;;3.97;;
33184;SDS011;19550;42.872;25.494;2024-02-23T10:58:23;4.95;;;4.05;;
33184;SDS011;19550;42.872;25.494;2024-02-23T11:00:53;3.97;;;3.58;;
33184;SDS011;19550;42.872;25.494;2024-02-23T11:03:25;6.28;;;4.88;;
33184;SDS011;19550;42.872;25.494;2024-02-23T11:05:53;4.25;;;3.58;;
33184;SDS011;19550;42.872;25.494;2024-02-23T11:08:20;4.97;;;4.05;;
33184;SDS011;19550;42.872;25.494;2024-02-23T11:10:50;4.95;;;4.15;;
33184;SDS011;19550;42.872;25.494;2024-02-23T11:13:18;4.43;;;4.00;;
33184;SDS011;19550;42.872;25.494;2024-02-23T11:15:45;6.20;;;4.60;;
33184;SDS011;19550;42.872;25.494;2024-02-23T11:18:22;8.35;;;5.32;;
33184;SDS011;19550;42.872;25.494;2024-02-23T11:20:56;5.32;;;4.70;;
33184;SDS011;19550;42.872;25.494;2024-02-23T11:23:25;7.25;;;5.07;;
33184;SDS011;19550;42.872;25.494;2024-02-23T11:25:58;5.63;;;4.85;;
33184;SDS011;19550;42.872;25.494;2024-02-23T11:28:27;4.78;;;4.20;;
33184;SDS011;19550;42.872;25.494;2024-02-23T11:30:54;5.63;;;4.57;;
33184;SDS011;19550;42.872;25.494;2024-02-23T11:33:31;5.72;;;4.80;;
33184;SDS011;19550;42.872;25.494;2024-02-23T11:38:34;5.00;;;4.50;;
33184;SDS011;19550;42.872;25.494;2024-02-23T11:41:02;5.78;;;4.30;;
33184;SDS011;19550;42.872;25.494;2024-02-23T11:43:29;5.10;;;4.47;;
33184;SDS011;19550;42.872;25.494;2024-02-23T11:46:00;5.95;;;5.10;;
33184;SDS011;19550;42.872;25.494;2024-02-23T11:48:27;4.80;;;4.30;;
33184;SDS011;19550;42.872;25.494;2024-02-23T11:50:55;5.30;;;4.45;;
33184;SDS011;19550;42.872;25.494;2024-02-23T11:53:23;6.90;;;4.22;;
33184;SDS011;19550;42.872;25.494;2024-02-23T11:55:52;6.25;;;5.43;;
33184;SDS011;19550;42.872;25.494;2024-02-23T11:58:19;8.20;;;5.05;;
33184;SDS011;19550;42.872;25.494;2024-02-23T12:00:46;5.95;;;4.82;;
33184;SDS011;19550;42.872;25.494;2024-02-23T12:03:13;6.28;;;5.20;;
33184;SDS011;19550;42.872;25.494;2024-02-23T12:05:40;5.88;;;4.63;;
33184;SDS011;19550;42.872;25.494;2024-02-23T12:08:08;6.03;;;4.60;;
33184;SDS011;19550;42.872;25.494;2024-02-23T12:10:35;5.55;;;4.90;;
33184;SDS011;19550;42.872;25.494;2024-02-23T12:13:03;6.22;;;4.97;;
33184;SDS011;19550;42.872;25.494;2024-02-23T12:15:30;5.78;;;4.90;;
33184;SDS011;19550;42.872;25.494;2024-02-23T12:17:57;6.38;;;5.03;;
33184;SDS011;19550;42.872;25.494;2024-02-23T12:20:25;5.30;;;4.50;;
33184;SDS011;19550;42.872;25.494;2024-02-23T12:22:54;5.88;;;5.13;;
33184;SDS011;19550;42.872;25.494;2024-02-23T12:25:22;6.22;;;5.32;;
33184;SDS011;19550;42.872;25.494;2024-02-23T12:27:54;7.38;;;6.35;;
33184;SDS011;19550;42.872;25.494;2024-02-23T12:30:22;6.53;;;5.32;;
33184;SDS011;19550;42.872;25.494;2024-02-23T12:32:48;7.38;;;5.60;;
33184;SDS011;19550;42.872;25.494;2024-02-23T12:35:15;7.78;;;4.93;;
33184;SDS011;19550;42.872;25.494;2024-02-23T12:37:42;7.20;;;5.13;;
33184;SDS011;19550;42.872;25.494;2024-02-23T12:40:10;10.35;;;7.20;;
33184;SDS011;19550;42.872;25.494;2024-02-23T12:42:39;10.85;;;7.60;;
33184;SDS011;19550;42.872;25.494;2024-02-23T12:45:06;17.00;;;11.55;;
33184;SDS011;19550;42.872;25.494;2024-02-23T12:47:33;9.57;;;6.60;;
33184;SDS011;19550;42.872;25.494;2024-02-23T12:50:00;24.15;;;12.75;;
33184;SDS011;19550;42.872;25.494;2024-02-23T12:52:27;7.78;;;6.60;;
33184;SDS011;19550;42.872;25.494;2024-02-23T12:54:54;6.95;;;5.50;;
33184;SDS011;19550;42.872;25.494;2024-02-23T12:57:20;7.30;;;5.53;;
33184;SDS011;19550;42.872;25.494;2024-02-23T12:59:48;7.47;;;5.00;;
33184;SDS011;19550;42.872;25.494;2024-02-23T13:02:15;5.03;;;4.53;;
33184;SDS011;19550;42.872;25.494;2024-02-23T13:04:43;5.78;;;5.18;;
33184;SDS011;19550;42.872;25.494;2024-02-23T13:07:13;6.32;;;5.40;;
33184;SDS011;19550;42.872;25.494;2024-02-23T13:09:40;5.68;;;4.45;;
33184;SDS011;19550;42.872;25.494;2024-02-23T13:12:07;6.80;;;4.75;;
33184;SDS011;19550;42.872;25.494;2024-02-23T13:14:35;6.82;;;4.15;;
33184;SDS011;19550;42.872;25.494;2024-02-23T13:17:04;5.47;;;4.75;;
33184;SDS011;19550;42.872;25.494;2024-02-23T13:19:30;12.93;;;10.43;;
33184;SDS011;19550;42.872;25.494;2024-02-23T13:21:57;7.68;;;6.82;;
33184;SDS011;19550;42.872;25.494;2024-02-23T13:24:25;7.10;;;4.57;;
33184;SDS011;19550;42.872;25.494;2024-02-23T13:26:52;5.55;;;4.50;;
33184;SDS011;19550;42.872;25.494;2024-02-23T13:29:32;19.30;;;12.95;;
33184;SDS011;19550;42.872;25.494;2024-02-23T13:31:59;16.05;;;10.68;;
33184;SDS011;19550;42.872;25.494;2024-02-23T13:34:27;20.27;;;12.35;;
33184;SDS011;19550;42.872;25.494;2024-02-23T13:51:29;6.95;;;4.93;;
33184;SDS011;19550;42.872;25.494;2024-02-23T13:53:56;4.82;;;3.90;;
33184;SDS011;19550;42.872;25.494;2024-02-23T13:56:23;7.32;;;4.00;;
33184;SDS011;19550;42.872;25.494;2024-02-23T13:58:50;5.43;;;4.43;;
33184;SDS011;19550;42.872;25.494;2024-02-23T14:01:17;6.28;;;4.60;;
33184;SDS011;19550;42.872;25.494;2024-02-23T14:03:44;6.95;;;4.90;;
33184;SDS011;19550;42.872;25.494;2024-02-23T14:06:11;10.48;;;6.82;;
33184;SDS011;19550;42.872;25.494;2024-02-23T14:08:39;8.38;;;5.47;;
33184;SDS011;19550;42.872;25.494;2024-02-23T14:11:07;4.63;;;4.00;;
33184;SDS011;19550;42.872;25.494;2024-02-23T14:13:34;6.15;;;4.35;;
33184;SDS011;19550;42.872;25.494;2024-02-23T14:16:01;5.90;;;5.05;;
33184;SDS011;19550;42.872;25.494;2024-02-23T14:18:29;6.00;;;4.57;;
33184;SDS011;19550;42.872;25.494;2024-02-23T14:20:57;6.40;;;3.95;;
33184;SDS011;19550;42.872;25.494;2024-02-23T14:23:24;5.78;;;4.65;;
33184;SDS011;19550;42.872;25.494;2024-02-23T14:25:52;4.63;;;3.95;;
33184;SDS011;19550;42.872;25.494;2024-02-23T14:28:19;21.48;;;14.82;;
33184;SDS011;19550;42.872;25.494;2024-02-23T14:30:45;8.93;;;7.18;;
33184;SDS011;19550;42.872;25.494;2024-02-23T14:33:12;8.20;;;5.00;;
33184;SDS011;19550;42.872;25.494;2024-02-23T14:35:39;9.05;;;7.80;;
33184;SDS011;19550;42.872;25.494;2024-02-23T14:38:05;6.93;;;5.53;;
33184;SDS011;19550;42.872;25.494;2024-02-23T14:40:32;6.53;;;5.30;;
33184;SDS011;19550;42.872;25.494;2024-02-23T14:43:00;9.05;;;5.70;;
33184;SDS011;19550;42.872;25.494;2024-02-23T14:45:27;6.93;;;5.15;;